Time;durP1;ratioP1;P1;durP2;ratioP2;P2;SDS_P1;SDS_P2;PMS_P1;PMS_P2;Temp;Humidity;BMP_temperature;BMP_pressure;BME280_temperature;BME280_humidity;BME280_pressure;Samples;Min_cycle;Max_cycle;Signal;HPM_P1;HPM_P2
2021/03/23 00:04:14;;;;;;;2.97;1.33;;;;;;;0.89;49.38;99733.03;1737616;76;21233;-88
2021/03/23 00:20:15;;;;;;;4.30;1.43;;;;;;;0.61;50.18;99732.58;1784655;79;21195;-88
2021/03/23 00:38:54;;;;;;;1.53;0.70;;;;;;;0.31;50.82;99729.13;1779505;75;21212;-84
2021/03/23 00:44:14;;;;;;;1.60;0.50;;;;;;;0.32;50.77;99728.14;1760368;79;22594;-86
2021/03/23 00:46:46;;;;;;;1.87;0.47;;;;;;;0.28;50.90;99733.32;1781256;80;21461;-86
2021/03/23 00:49:16;;;;;;;3.67;0.63;;;;;;;0.26;50.85;99737.88;1757532;79;21232;-87
2021/03/23 00:51:47;;;;;;;1.03;0.50;;;;;;;0.24;50.78;99724.90;1768727;80;21195;-87
2021/03/23 00:54:19;;;;;;;2.40;0.40;;;;;;;0.19;50.90;99729.25;1776781;79;21176;-85
2021/03/23 00:56:47;;;;;;;0.50;0.20;;;;;;;0.20;51.02;99734.00;1755388;80;21179;-87
2021/03/23 00:59:15;;;;;;;1.00;0.30;;;;;;;0.18;51.18;99738.06;1734437;81;21679;-88
2021/03/23 01:01:43;;;;;;;1.40;0.40;;;;;;;0.19;51.05;99736.30;1724213;80;21201;-87
2021/03/23 01:17:38;;;;;;;1.77;0.60;;;;;;;-0.12;51.71;99722.44;1781234;78;22404;-85
2021/03/23 01:20:09;;;;;;;1.27;0.70;;;;;;;-0.18;51.82;99729.05;1762958;79;21353;-85
2021/03/23 01:22:45;;;;;;;4.10;0.50;;;;;;;-0.14;51.92;99726.98;1755000;78;22706;-87
2021/03/23 01:25:16;;;;;;;0.90;0.30;;;;;;;-0.16;51.95;99721.06;1681344;83;21359;-87
2021/03/23 01:27:48;;;;;;;0.97;0.53;;;;;;;-0.18;51.92;99728.22;1653413;85;21234;-88
2021/03/23 01:30:19;;;;;;;1.70;0.17;;;;;;;-0.16;51.73;99736.77;1642220;86;21203;-89
2021/03/23 01:32:53;;;;;;;1.73;0.87;;;;;;;-0.18;52.09;99742.14;1623106;86;21349;-87
2021/03/23 01:35:25;;;;;;;1.60;0.60;;;;;;;-0.20;51.79;99730.97;1700657;83;21119;-86
2021/03/23 01:37:53;;;;;;;0.87;0.57;;;;;;;-0.21;51.91;99734.08;1699387;84;21322;-87
2021/03/23 01:40:25;;;;;;;1.40;0.60;;;;;;;-0.26;52.00;99734.95;1699606;83;21179;-86
2021/03/23 01:42:58;;;;;;;2.43;0.50;;;;;;;-0.25;52.22;99735.28;1717581;81;21163;-86
2021/03/23 01:45:36;;;;;;;1.20;0.60;;;;;;;-0.39;52.12;99712.11;1729920;78;21090;-86
2021/03/23 01:48:09;;;;;;;1.87;0.90;;;;;;;-0.28;52.21;99731.64;1728031;81;21246;-86
2021/03/23 01:50:37;;;;;;;2.33;0.87;;;;;;;-0.29;52.23;99729.16;1727568;81;21189;-87
2021/03/23 01:53:16;;;;;;;1.67;0.77;;;;;;;-0.30;52.36;99725.71;1712558;81;21657;-89
2021/03/23 01:55:47;;;;;;;1.23;0.97;;;;;;;-0.25;52.29;99732.67;1703262;83;21262;-88
2021/03/23 01:58:18;;;;;;;2.80;0.80;;;;;;;-0.28;52.38;99732.95;1729732;81;21194;-89
2021/03/23 02:00:49;;;;;;;1.70;0.77;;;;;;;-0.27;52.54;99739.02;1729975;81;21140;-87
2021/03/23 02:03:22;;;;;;;3.13;1.53;;;;;;;-0.30;52.38;99727.48;1712643;83;21203;-86
2021/03/23 02:05:57;;;;;;;3.27;1.30;;;;;;;-0.32;52.55;99735.50;1695866;83;21214;-87
2021/03/23 02:08:29;;;;;;;2.10;1.00;;;;;;;-0.32;52.65;99740.73;1691718;84;21256;-87
2021/03/23 02:11:02;;;;;;;3.07;1.47;;;;;;;-0.32;52.47;99737.27;1699767;83;21214;-89
2021/03/23 02:13:39;;;;;;;4.10;0.90;;;;;;;-0.34;52.63;99732.19;1700376;83;21818;-87
2021/03/23 02:16:13;;;;;;;3.00;0.90;;;;;;;-0.34;52.62;99737.42;1701227;83;21136;-87
2021/03/23 02:18:48;;;;;;;2.33;1.40;;;;;;;-0.35;52.84;99740.98;1699441;83;21242;-89
2021/03/23 02:21:25;;;;;;;3.47;1.20;;;;;;;-0.36;52.93;99731.45;1810148;77;23121;-88
2021/03/23 02:24:00;;;;;;;3.40;1.07;;;;;;;-0.41;52.88;99742.34;1659902;81;21236;-89
2021/03/23 02:26:43;;;;;;;4.20;1.23;;;;;;;-0.45;52.90;99734.90;1667463;84;21211;-90
2021/03/23 02:29:19;;;;;;;6.10;1.23;;;;;;;-0.47;53.00;99732.87;1625017;85;22362;-89
2021/03/23 03:16:31;;;;;;;1.60;0.70;;;;;;;-0.64;54.34;99751.33;1714369;79;21747;-87
2021/03/23 04:50:01;;;;;;;6.83;4.70;;;;;;;5.31;41.17;99778.30;1804007;75;21184;-87
2021/03/23 04:52:38;;;;;;;8.33;4.57;;;;;;;5.68;40.53;99774.27;1781498;79;22467;-89
2021/03/23 04:57:51;;;;;;;7.50;4.87;;;;;;;6.00;39.36;99773.34;1798894;79;22590;-88
2021/03/23 05:00:29;;;;;;;5.70;4.17;;;;;;;6.06;38.92;99783.73;1690427;81;21156;-91
2021/03/23 05:02:55;;;;;;;5.53;3.87;;;;;;;6.11;38.54;99777.94;1673146;85;22316;-90
2021/03/23 05:05:28;;;;;;;5.17;3.13;;;;;;;6.17;38.51;99777.23;1686690;84;21422;-91
2021/03/23 05:08:01;;;;;;;6.97;3.17;;;;;;;6.33;38.50;99776.31;1695075;84;21367;-91
2021/03/23 05:24:08;;;;;;;5.40;3.03;;;;;;;8.16;35.17;99766.80;1748058;79;21204;-85
2021/03/23 05:26:45;;;;;;;3.60;2.60;;;;;;;8.47;34.81;99768.38;1809449;77;22944;-87
2021/03/23 05:29:12;;;;;;;2.17;1.80;;;;;;;8.64;34.29;99779.08;1754677;81;21200;-85
2021/03/23 05:31:40;;;;;;;8.83;2.30;;;;;;;8.89;33.93;99781.34;1743462;81;21183;-86
2021/03/23 05:34:10;;;;;;;2.73;1.93;;;;;;;9.20;33.72;99781.00;1737948;81;21221;-85
2021/03/23 05:36:38;;;;;;;3.43;2.10;;;;;;;9.48;32.83;99781.00;1705485;82;21513;-84
2021/03/23 05:39:07;;;;;;;4.67;2.90;;;;;;;9.58;32.85;99778.50;1706916;82;21187;-86
2021/03/23 05:41:52;;;;;;;5.47;2.60;;;;;;;9.57;32.39;99783.50;1705773;82;21198;-86
2021/03/23 05:44:44;;;;;;;5.23;2.33;;;;;;;9.49;32.83;99788.47;1661328;79;1982099;-86
2021/03/23 05:47:17;;;;;;;4.37;1.97;;;;;;;9.58;32.40;99780.64;1705108;82;21701;-87
2021/03/23 05:50:09;;;;;;;3.73;1.70;;;;;;;9.37;32.37;99783.38;1678832;82;21716;-89
2021/03/23 05:52:46;;;;;;;3.80;2.27;;;;;;;8.62;33.05;99732.47;1686979;82;21425;-90
2021/03/23 05:55:19;;;;;;;;;;;;;;;8.70;33.73;99784.14;1709737;82;21422;-87
2021/03/23 05:57:51;;;;;;;3.97;2.57;;;;;;;8.95;33.34;99780.09;1717527;81;20177;-90
2021/03/23 06:00:30;;;;;;;3.20;2.13;;;;;;;9.06;33.46;99789.39;1727734;81;21776;-88
2021/03/23 06:03:22;;;;;;;7.37;2.10;;;;;;;9.35;32.58;99779.58;1698320;82;21208;-87
2021/03/23 06:06:00;;;;;;;8.43;1.87;;;;;;;9.38;32.66;99773.89;1711440;82;21289;-88
2021/03/23 06:08:33;;;;;;;5.57;2.13;;;;;;;9.31;32.57;99770.36;1710898;82;21209;-88
2021/03/23 06:11:42;;;;;;;4.60;2.27;;;;;;;9.12;32.54;99781.97;1708036;82;21215;-89
2021/03/23 06:14:33;;;;;;;2.17;1.60;;;;;;;8.69;33.14;99735.50;1711424;82;21241;-89
2021/03/23 06:17:21;;;;;;;1.83;1.00;;;;;;;9.06;32.78;99788.55;1711051;82;21310;-87
2021/03/23 06:20:03;;;;;;;2.43;0.87;;;;;;;8.96;33.02;99787.55;1711079;82;21236;-87
2021/03/23 06:22:52;;;;;;;3.00;1.23;;;;;;;8.59;33.31;99762.91;1711086;80;21085;-87
2021/03/23 06:25:40;;;;;;;1.30;0.80;;;;;;;8.52;33.65;99799.20;1716647;79;21310;-87
2021/03/23 06:32:17;;;;;;;2.63;1.13;;;;;;;8.24;34.43;99806.50;1789491;78;22849;-83
2021/03/23 06:34:48;;;;;;;2.57;0.80;;;;;;;8.01;35.09;99809.29;1693532;81;21096;-84
2021/03/23 06:37:23;;;;;;;1.60;0.70;;;;;;;8.08;35.42;99816.00;1738421;81;21330;-82
2021/03/23 06:39:55;;;;;;;2.37;0.63;;;;;;;8.13;35.27;99801.67;1716206;81;21346;-84
2021/03/23 06:42:39;;;;;;;2.77;0.70;;;;;;;8.15;34.83;99807.61;1698629;81;21329;-83
2021/03/23 06:45:31;;;;;;;3.03;1.33;;;;;;;7.74;35.21;99816.05;1724268;82;21473;-83
2021/03/23 06:48:21;;;;;;;1.77;0.80;;;;;;;7.24;36.10;99812.26;1741639;81;21186;-85
2021/03/23 06:50:50;;;;;;;2.03;0.80;;;;;;;6.42;37.07;99820.27;1724315;81;21434;-82
2021/03/23 06:53:22;;;;;;;3.43;0.90;;;;;;;5.56;38.83;99821.91;1714277;81;21319;-84
2021/03/23 06:55:50;;;;;;;1.43;0.73;;;;;;;4.99;40.43;99820.95;1716023;81;21077;-85
2021/03/23 06:58:34;;;;;;;2.87;1.10;;;;;;;4.58;41.01;99822.73;1646404;84;21214;-84
2021/03/23 07:01:24;;;;;;;3.57;0.73;;;;;;;4.15;41.90;99814.84;1631189;87;21128;-84
2021/03/23 07:03:55;;;;;;;2.10;1.23;;;;;;;3.74;42.46;99819.12;1623525;86;21399;-84
2021/03/23 07:06:30;;;;;;;2.30;1.03;;;;;;;3.29;43.54;99819.66;1630168;86;21266;-83
2021/03/23 07:09:12;;;;;;;2.37;1.20;;;;;;;3.08;44.63;99824.77;1635929;86;21810;-86
2021/03/23 07:12:04;;;;;;;1.50;0.87;;;;;;;2.89;45.04;99819.17;1634483;86;21109;-83
2021/03/23 07:14:39;;;;;;;2.33;1.03;;;;;;;2.77;45.04;99816.45;1661650;84;21223;-84
2021/03/23 07:17:12;;;;;;;0.83;0.60;;;;;;;2.75;43.95;99813.15;1676334;83;21238;-82
2021/03/23 07:20:03;;;;;;;0.57;0.20;;;;;;;2.68;43.24;99809.45;1677452;83;21353;-83
2021/03/23 07:22:46;;;;;;;2.87;0.40;;;;;;;2.61;41.92;99812.34;1645375;84;22207;-85
2021/03/23 07:25:41;;;;;;;1.33;0.30;;;;;;;2.57;42.37;99802.60;1684470;83;21205;-87
2021/03/23 07:28:42;;;;;;;1.00;0.30;;;;;;;2.68;41.70;99803.70;1803127;78;23098;-85
2021/03/23 07:31:32;;;;;;;1.60;0.40;;;;;;;2.62;41.97;99809.57;1772516;80;21227;-81
2021/03/23 07:34:12;;;;;;;3.90;0.50;;;;;;;2.62;42.21;99815.30;1707812;78;21527;-83
2021/03/23 07:37:06;;;;;;;2.27;0.80;;;;;;;2.67;42.57;99817.00;1671960;83;21831;-82
2021/03/23 07:39:46;;;;;;;2.47;0.93;;;;;;;2.81;42.07;99813.85;1688869;83;21360;-83
2021/03/23 07:42:45;;;;;;;3.27;0.97;;;;;;;2.90;42.06;99809.00;1685353;83;21229;-82
2021/03/23 07:45:36;;;;;;;2.43;0.97;;;;;;;3.01;42.00;99817.63;1692049;82;21158;-86
2021/03/23 07:48:18;;;;;;;4.90;1.33;;;;;;;3.01;40.88;99821.08;1686242;83;22283;-84
2021/03/23 07:50:54;;;;;;;1.50;0.70;;;;;;;2.96;40.55;99815.46;1702331;83;21229;-85
2021/03/23 07:53:36;;;;;;;2.83;0.60;;;;;;;2.99;40.70;99811.69;1707881;83;21222;-85
2021/03/23 07:56:27;;;;;;;3.10;0.50;;;;;;;2.99;40.73;99814.32;1679417;83;21207;-84
2021/03/23 07:59:33;;;;;;;2.07;0.70;;;;;;;3.09;40.55;99810.63;1661278;83;21201;-87
2021/03/23 08:03:06;;;;;;;1.13;0.33;;;;;;;3.30;40.26;99804.20;1789125;78;22966;-87
2021/03/23 08:09:26;;;;;;;3.33;0.63;;;;;;;3.49;38.77;99805.30;1764397;78;22951;-86
2021/03/23 08:12:40;;;;;;;3.70;0.53;;;;;;;3.42;38.55;99818.75;1671675;81;21418;-86
2021/03/23 08:15:27;;;;;;;2.00;0.40;;;;;;;2.99;37.54;99765.12;1610173;86;22375;-84
2021/03/23 08:18:33;;;;;;;4.10;0.70;;;;;;;3.16;37.86;99805.56;1564659;89;21828;-84
2021/03/23 08:21:39;;;;;;;;;;;;;;;;;;;;;
2021/03/23 08:24:39;;;;;;;4.53;0.30;;;;;;;3.01;37.13;99797.38;1604580;86;21117;-86
2021/03/23 08:27:14;;;;;;;5.87;0.53;;;;;;;2.88;37.92;99796.48;1638322;85;21216;-86
2021/03/23 08:30:06;;;;;;;0.93;0.20;;;;;;;2.91;38.38;99797.47;1642302;85;21241;-85
2021/03/23 08:33:00;;;;;;;1.60;0.37;;;;;;;3.06;38.58;99792.49;1647402;85;21232;-84
2021/03/23 08:36:07;;;;;;;2.13;0.60;;;;;;;3.25;38.25;99790.66;1638706;85;21728;-84
2021/03/23 08:38:59;;;;;;;2.70;0.70;;;;;;;3.42;37.91;99795.04;1630627;85;21239;-84
2021/03/23 08:41:56;;;;;;;0.90;0.20;;;;;;;3.55;37.14;99791.99;1627549;85;21462;-84
2021/03/23 08:44:36;;;;;;;2.50;0.43;;;;;;;3.64;36.57;99788.42;1649577;84;21121;-85
2021/03/23 08:47:50;;;;;;;5.80;0.10;;;;;;;3.67;35.85;99778.89;1763156;79;23120;-84
2021/03/23 08:51:04;;;;;;;0.50;0.20;;;;;;;3.65;35.24;99780.83;1765451;78;27867;-84
2021/03/23 08:53:47;;;;;;;0.20;0.10;;;;;;;3.62;35.61;99788.25;1760893;79;21145;-85
2021/03/23 08:56:46;;;;;;;0.77;0.27;;;;;;;3.59;34.75;99793.33;1752531;79;21641;-84
2021/03/23 08:59:37;;;;;;;0.60;0.10;;;;;;;3.27;35.39;99736.83;1760490;79;21183;-82
2021/03/23 09:02:13;;;;;;;0.73;0.27;;;;;;;3.64;35.07;99783.65;1716016;79;21267;-83
2021/03/23 09:04:45;;;;;;;1.85;0.30;;;;;;;3.63;34.32;99789.89;1709392;81;21220;-86
2021/03/23 09:07:21;;;;;;;1.37;0.10;;;;;;;3.60;34.15;99785.77;1710691;81;21386;-85
2021/03/23 09:10:58;;;;;;;0.70;0.10;;;;;;;3.45;34.79;99759.67;1811136;75;28581;-86
2021/03/23 09:13:47;;;;;;;;;;;;;;;;;;;;;
2021/03/23 09:16:52;;;;;;;1.57;0.27;;;;;;;3.61;34.50;99785.27;1764551;79;23171;-84
2021/03/23 09:19:40;;;;;;;3.70;0.20;;;;;;;3.42;33.48;99771.83;1751385;80;21211;-83
2021/03/23 09:22:18;;;;;;;2.92;0.47;;;;;;;3.39;33.78;99779.56;1741991;80;21201;-83
2021/03/23 09:24:57;;;;;;;2.03;0.10;;;;;;;3.52;33.51;99769.89;1667547;84;21252;-85
2021/03/23 09:27:30;;;;;;;0.50;0.10;;;;;;;3.55;32.82;99765.64;1696302;83;21902;-86
2021/03/23 09:29:58;;;;;;;5.70;0.10;;;;;;;3.53;33.04;99766.80;1692567;83;21201;-85
2021/03/23 09:35:17;;;;;;;6.50;0.10;;;;;;;3.50;31.61;99741.56;1736869;79;23144;-83
2021/03/23 09:38:19;;;;;;;2.20;0.20;;;;;;;3.49;31.29;99764.96;1728609;81;21280;-83
2021/03/23 09:41:07;;;;;;;;;;;;;;;;;;;;;
2021/03/23 09:43:40;;;;;;;10.93;1.30;;;;;;;3.54;31.12;99748.66;1807213;77;24923;-85
2021/03/23 09:46:37;;;;;;;4.27;0.20;;;;;;;3.48;31.31;99770.73;1653505;83;21137;-84
2021/03/23 09:49:45;;;;;;;3.27;0.23;;;;;;;3.43;31.71;99744.52;1796924;77;23676;-83
2021/03/23 09:52:20;;;;;;;1.80;0.20;;;;;;;3.40;32.56;99746.13;1773986;80;21243;-84
2021/03/23 09:54:58;;;;;;;8.67;0.73;;;;;;;3.53;33.21;99738.62;1742642;80;21176;-85
2021/03/23 09:57:30;;;;;;;5.60;0.10;;;;;;;3.59;32.79;99753.80;1684706;83;21283;-85
2021/03/23 10:00:01;;;;;;;3.07;0.10;;;;;;;3.66;32.66;99757.96;1700558;83;21171;-83
2021/03/23 10:02:34;;;;;;;2.10;0.10;;;;;;;3.70;32.46;99746.11;1700485;82;21378;-86
2021/03/23 10:05:23;;;;;;;5.37;0.20;;;;;;;3.77;32.42;99758.15;1705424;83;21578;-85
2021/03/23 10:07:55;;;;;;;2.30;0.27;;;;;;;3.80;32.42;99743.34;1694022;82;21361;-85
2021/03/23 10:10:33;;;;;;;1.93;0.10;;;;;;;3.87;32.20;99749.14;1702841;82;21235;-85
2021/03/23 10:13:24;;;;;;;0.77;0.30;;;;;;;3.83;32.26;99749.63;1686681;83;22216;-85
2021/03/23 10:15:52;;;;;;;1.30;0.10;;;;;;;3.83;32.13;99741.72;1664730;84;21231;-85
2021/03/23 10:18:25;;;;;;;1.90;0.30;;;;;;;3.87;32.68;99745.19;1686170;83;21715;-85
2021/03/23 10:20:59;;;;;;;1.80;0.40;;;;;;;3.97;32.57;99749.00;1681642;83;21183;-83
2021/03/23 10:23:29;;;;;;;0.70;0.37;;;;;;;4.01;32.41;99739.81;1662392;85;21122;-86
2021/03/23 10:26:01;;;;;;;2.47;0.10;;;;;;;4.03;33.03;99735.20;1679122;83;21315;-86
2021/03/23 10:28:46;;;;;;;1.20;0.20;;;;;;;4.06;32.69;99755.14;1694286;83;21213;-85
2021/03/23 10:31:11;;;;;;;0.20;0.10;;;;;;;3.96;32.84;99748.69;1694646;83;21605;-84
2021/03/23 10:33:41;;;;;;;3.20;0.40;;;;;;;3.87;33.22;99750.95;1685699;83;21152;-83
2021/03/23 10:36:13;;;;;;;0.33;0.13;;;;;;;3.84;32.67;99752.11;1688763;83;21201;-83
2021/03/23 10:38:49;;;;;;;0.10;0.10;;;;;;;3.78;32.78;99745.31;1706514;82;21137;-83
2021/03/23 10:41:25;;;;;;;1.20;0.10;;;;;;;3.77;32.29;99751.56;1688193;83;21413;-83
2021/03/23 10:44:14;;;;;;;1.20;0.47;;;;;;;3.82;32.22;99750.59;1696545;83;21216;-85
2021/03/23 10:46:57;;;;;;;3.70;0.10;;;;;;;3.84;32.73;99741.56;1797370;77;22825;-84
2021/03/23 10:49:31;;;;;;;1.97;0.10;;;;;;;3.76;33.26;99755.20;1791195;78;21228;-85
2021/03/23 10:52:07;;;;;;;0.43;0.10;;;;;;;3.66;33.67;99752.19;1773985;78;21784;-84
2021/03/23 10:54:39;;;;;;;0.50;0.30;;;;;;;3.58;33.19;99749.53;1782922;78;21290;-84
2021/03/23 10:57:32;;;;;;;0.20;0.17;;;;;;;3.52;33.13;99738.27;1759677;80;21253;-85
2021/03/23 11:00:20;;;;;;;3.40;0.10;;;;;;;3.58;33.13;99761.39;1761767;80;21189;-84
2021/03/23 11:02:47;;;;;;;;;;;;;;;3.60;31.36;99755.46;1758228;80;21220;-84
2021/03/23 11:05:22;;;;;;;;;;;;;;;3.56;32.10;99763.36;1763776;79;20745;-85
2021/03/23 11:07:59;;;;;;;16.07;0.83;;;;;;;3.48;33.56;99760.66;1740989;80;20640;-85
2021/03/23 11:10:35;;;;;;;24.57;0.90;;;;;;;3.28;36.42;99792.50;1713382;82;21240;-86
2021/03/23 11:13:02;;;;;;;11.73;0.50;;;;;;;3.01;45.85;99788.66;1690596;82;21127;-83
2021/03/23 11:15:35;;;;;;;2.67;0.20;;;;;;;1.26;51.21;99631.18;1699448;82;21229;-86
2021/03/23 11:18:01;;;;;;;0.50;0.27;;;;;;;1.75;58.99;99855.07;1700431;82;21203;-85
2021/03/23 11:23:41;;;;;;;0.53;0.20;;;;;;;0.56;62.76;99856.25;1776304;77;23040;-85
2021/03/23 11:26:12;;;;;;;1.37;0.20;;;;;;;0.31;62.73;99841.36;1728806;82;21463;-84
2021/03/23 11:28:40;;;;;;;3.03;2.33;;;;;;;0.23;62.01;99834.66;1726703;81;21186;-84
2021/03/23 11:31:09;;;;;;;3.50;1.10;;;;;;;0.26;62.01;99836.17;1735134;81;21175;-84
2021/03/23 11:33:36;;;;;;;0.90;0.30;;;;;;;0.30;60.24;99833.63;1748048;80;21217;-85
2021/03/23 11:36:05;;;;;;;2.27;0.57;;;;;;;0.45;58.58;99836.20;1742923;80;21947;-86
2021/03/23 11:38:33;;;;;;;0.47;0.47;;;;;;;0.60;58.16;99824.02;1738931;80;21284;-85
2021/03/23 11:41:03;;;;;;;0.83;0.43;;;;;;;0.85;57.54;99829.20;1747523;81;21247;-87
2021/03/23 11:43:50;;;;;;;2.00;0.30;;;;;;;1.02;55.87;99827.68;1742682;81;21346;-85
2021/03/23 11:46:28;;;;;;;5.53;0.60;;;;;;;1.23;54.01;99820.48;1729407;81;21178;-87
2021/03/23 11:49:09;;;;;;;1.30;0.30;;;;;;;1.46;53.13;99823.61;1703139;80;21238;-85
2021/03/23 11:51:41;;;;;;;3.50;0.20;;;;;;;0.48;55.36;99637.97;1706264;83;21346;-86
2021/03/23 11:54:10;;;;;;;2.00;0.80;;;;;;;1.56;59.10;99831.46;1697716;83;21352;-85
2021/03/23 11:56:38;;;;;;;2.13;0.30;;;;;;;1.33;61.09;99842.30;1666610;84;21198;-86
2021/03/23 11:59:07;;;;;;;1.10;0.40;;;;;;;1.08;62.82;99844.20;1699761;83;21211;-84
2021/03/23 12:01:35;;;;;;;0.60;0.40;;;;;;;0.84;62.99;99835.43;1698592;83;21222;-84
2021/03/23 12:04:03;;;;;;;2.87;0.70;;;;;;;0.39;64.30;99810.05;1674247;83;21551;-88
2021/03/23 12:06:51;;;;;;;2.83;0.50;;;;;;;0.35;63.73;99820.46;1654368;83;21362;-85
2021/03/23 14:42:56;;;;;;;5.93;0.50;;;;;;;-0.30;72.54;99923.45;1766233;77;21184;-84
2021/03/23 14:46:03;;;;;;;0.37;0.10;;;;;;;-0.52;72.06;99923.58;1762067;79;23009;-83
2021/03/23 14:48:58;;;;;;;0.20;0.20;;;;;;;-0.74;72.71;99903.56;1776838;80;21156;-84
2021/03/23 14:51:27;;;;;;;1.47;0.63;;;;;;;-0.82;72.69;99881.47;1739908;80;21170;-84
2021/03/23 14:53:57;;;;;;;0.37;0.10;;;;;;;-0.79;71.14;99875.17;1704743;82;21180;-85
2021/03/23 14:56:31;;;;;;;1.60;0.10;;;;;;;-0.67;66.56;99867.59;1730856;80;21262;-85
2021/03/23 14:59:01;;;;;;;2.10;0.20;;;;;;;-0.55;64.28;99858.37;1699066;83;21228;-84
2021/03/23 15:01:29;;;;;;;1.60;0.40;;;;;;;-0.44;64.32;99870.91;1690304;83;21720;-82
2021/03/23 15:03:56;;;;;;;2.20;0.30;;;;;;;-0.35;62.96;99871.92;1655116;86;22288;-82
2021/03/23 15:06:31;;;;;;;1.60;0.90;;;;;;;-0.21;63.01;99881.23;1637292;85;21176;-83
2021/03/23 15:09:19;;;;;;;3.13;1.00;;;;;;;-0.10;62.54;99885.56;1657073;85;21319;-84
2021/03/23 15:11:51;;;;;;;2.10;1.40;;;;;;;-0.05;63.06;99889.45;1663409;85;20986;-83
2021/03/23 15:14:21;;;;;;;2.87;1.23;;;;;;;0.06;62.72;99897.71;1679232;83;21227;-92
2021/03/23 15:17:02;;;;;;;2.53;1.23;;;;;;;-0.64;62.78;99786.66;1627042;85;21196;-93
2021/03/23 15:19:42;;;;;;;;;;;;;;;0.23;67.57;99908.52;1681551;84;21250;-85
2021/03/23 15:22:17;;;;;;;0.25;0.20;;;;;;;0.21;70.01;99898.64;1687810;83;20196;-84
2021/03/23 15:24:44;;;;;;;0.30;0.30;;;;;;;-0.04;70.93;99898.12;1665440;84;21241;-84
2021/03/23 15:27:12;;;;;;;0.33;0.30;;;;;;;-0.23;70.42;99901.48;1681519;84;21756;-84
2021/03/23 15:29:53;;;;;;;;;;;;;;;;;;;;;
2021/03/23 15:32:46;;;;;;;0.27;0.20;;;;;;;-0.44;70.12;99889.23;1858275;75;22777;-84
2021/03/23 15:35:17;;;;;;;0.53;0.40;;;;;;;-0.51;68.78;99909.05;1748633;79;21294;-84
2021/03/23 15:37:45;;;;;;;0.87;0.30;;;;;;;-0.48;68.65;99892.25;1795553;78;21231;-84
2021/03/23 15:40:16;;;;;;;1.03;0.13;;;;;;;-0.45;67.85;99909.02;1782021;79;21246;-83
2021/03/23 15:42:43;;;;;;;0.70;0.30;;;;;;;-0.41;67.80;99904.70;1782289;78;21199;-86
2021/03/23 15:45:21;;;;;;;2.30;0.37;;;;;;;-0.37;67.91;99909.20;1747007;80;21114;-84
2021/03/23 15:47:50;;;;;;;0.72;0.20;;;;;;;-0.30;67.56;99912.97;1762045;80;21226;-83
2021/03/23 15:50:24;;;;;;;0.77;0.30;;;;;;;-0.30;67.84;99914.73;1761492;79;21419;-83
2021/03/23 15:52:53;;;;;;;0.70;0.20;;;;;;;-0.24;68.02;99917.69;1780133;78;21181;-83
2021/03/23 15:55:32;;;;;;;0.83;0.17;;;;;;;-0.22;67.78;99922.31;1760449;79;21216;-84
2021/03/23 15:58:05;;;;;;;1.33;0.20;;;;;;;-0.20;67.94;99922.19;1742628;80;21507;-84
2021/03/23 16:00:35;;;;;;;0.20;0.20;;;;;;;-0.16;67.89;99930.14;1762194;80;21163;-85
2021/03/23 16:03:03;;;;;;;0.93;0.40;;;;;;;-0.10;67.94;99935.34;1744727;79;21567;-85
2021/03/23 16:05:32;;;;;;;0.70;0.57;;;;;;;-0.04;67.54;99926.95;1743484;80;21207;-84
2021/03/23 16:08:21;;;;;;;1.10;0.30;;;;;;;0.02;67.69;99933.01;1763532;80;21558;-84
2021/03/23 16:10:48;;;;;;;3.40;0.60;;;;;;;0.11;67.33;99941.37;1741203;80;21543;-84
2021/03/23 16:13:15;;;;;;;1.60;0.93;;;;;;;0.14;66.74;99954.22;1736444;80;21653;-81
2021/03/23 16:15:49;;;;;;;3.73;2.23;;;;;;;0.21;66.56;99974.66;1749526;80;21151;-83
2021/03/23 16:18:17;;;;;;;2.60;1.23;;;;;;;0.18;64.67;99971.83;1751414;80;21313;-86
2021/03/23 16:34:28;;;;;;;2.83;1.37;;;;;;;0.10;64.58;100000.49;1804882;76;23034;-87
2021/03/23 16:36:58;;;;;;;3.77;2.90;;;;;;;0.09;64.41;100011.92;1743313;81;21165;-86
2021/03/23 16:43:20;;;;;;;2.03;1.03;;;;;;;0.15;64.33;100010.94;1699249;81;21216;-86
2021/03/23 16:45:49;;;;;;;1.00;0.90;;;;;;;0.18;64.13;100012.46;1682955;82;22414;-85
2021/03/23 16:48:19;;;;;;;2.37;1.30;;;;;;;0.15;64.30;100016.64;1662323;84;21216;-86
2021/03/23 16:50:49;;;;;;;2.20;1.57;;;;;;;0.15;64.09;100029.28;1671509;85;21343;-85
2021/03/23 16:53:21;;;;;;;1.70;1.40;;;;;;;0.14;64.21;100030.23;1661639;85;21292;-85
2021/03/23 16:55:50;;;;;;;2.80;1.40;;;;;;;0.18;64.03;100025.56;1652679;85;21945;-85
2021/03/23 16:58:18;;;;;;;2.93;2.10;;;;;;;0.18;63.62;100032.94;1628927;85;21207;-87
2021/03/23 17:00:53;;;;;;;3.70;3.23;;;;;;;0.22;63.42;100028.77;1630267;84;21464;-89
2021/03/23 17:03:28;;;;;;;4.17;2.83;;;;;;;0.24;63.47;100042.56;1617197;85;21650;-93
2021/03/23 17:16:59;;;;;;;2.90;1.90;;;;;;;0.04;64.72;100054.25;1801727;77;24041;-84
2021/03/23 17:19:29;;;;;;;1.63;1.17;;;;;;;-0.02;64.78;100069.14;1784206;78;21415;-84
2021/03/23 17:21:59;;;;;;;5.40;1.47;;;;;;;-0.05;64.88;100062.38;1773790;78;21133;-85
2021/03/23 17:24:39;;;;;;;1.33;0.90;;;;;;;0.01;64.95;100055.80;1787735;78;24093;-87
2021/03/23 17:40:21;;;;;;;3.97;1.33;;;;;;;-0.14;66.56;100055.77;1750874;79;22743;-85
2021/03/23 17:42:52;;;;;;;3.43;2.13;;;;;;;-0.25;66.96;100055.33;1737052;80;21242;-86
2021/03/23 17:45:25;;;;;;;2.57;1.70;;;;;;;-0.21;66.57;100061.52;1685238;80;21102;-86
2021/03/23 17:48:25;;;;;;;1.33;1.03;;;;;;;-0.17;66.53;100061.24;1808204;78;22890;-86
2021/03/23 17:50:59;;;;;;;1.57;1.47;;;;;;;-0.17;66.66;100061.24;1737273;81;21199;-85
2021/03/23 17:53:32;;;;;;;1.80;1.57;;;;;;;-0.16;66.65;100064.23;1730788;82;21180;-86
2021/03/23 17:55:59;;;;;;;2.13;1.80;;;;;;;-0.30;67.14;100043.92;1789755;79;21005;-86
2021/03/23 17:58:30;;;;;;;2.37;1.43;;;;;;;-0.13;67.20;100076.60;1745725;79;21164;-89
2021/03/23 18:01:05;;;;;;;1.97;1.70;;;;;;;-0.04;66.91;100080.23;1753490;79;21260;-89
2021/03/23 18:03:32;;;;;;;1.93;1.83;;;;;;;-0.35;67.07;100032.98;1728198;81;21567;-87
2021/03/23 18:06:02;;;;;;;2.63;1.83;;;;;;;-0.09;67.17;100077.19;1728342;81;21190;-85
2021/03/23 18:08:29;;;;;;;1.67;1.33;;;;;;;-0.08;66.79;100082.76;1730539;81;21309;-88
2021/03/23 18:11:29;;;;;;;2.33;1.73;;;;;;;-0.06;67.16;100084.31;1801040;78;23725;-88
2021/03/23 18:14:02;;;;;;;4.73;2.20;;;;;;;-0.06;67.06;100090.87;1710651;82;21238;-88
2021/03/23 18:16:31;;;;;;;2.27;2.03;;;;;;;-0.04;67.00;100090.72;1736641;81;21403;-87
2021/03/23 18:32:31;;;;;;;1.63;1.53;;;;;;;-0.07;66.47;100088.37;1723240;78;22424;-87
2021/03/23 18:35:01;;;;;;;1.97;1.80;;;;;;;-0.16;66.54;100095.67;1682394;80;21354;-90
2021/03/23 18:37:43;;;;;;;;;;;;;;;;;;;;;
2021/03/23 20:08:22;;;;;;;2.83;2.60;;;;;;;-0.22;68.37;100149.39;1697507;79;21197;-85
2021/03/23 20:10:51;;;;;;;4.50;3.30;;;;;;;-0.20;68.70;100147.47;1696458;83;21256;-86
2021/03/23 20:13:26;;;;;;;5.40;3.30;;;;;;;-0.20;68.71;100154.84;1679226;84;21479;-85
2021/03/23 20:15:57;;;;;;;5.80;3.40;;;;;;;-0.23;68.51;100153.80;1673544;84;21223;-85
2021/03/23 20:18:28;;;;;;;5.57;3.93;;;;;;;-0.22;68.20;100148.91;1661672;83;21235;-85
2021/03/23 20:21:08;;;;;;;4.40;3.47;;;;;;;-0.14;67.58;100146.15;1750619;79;23022;-84
2021/03/23 20:23:40;;;;;;;4.40;2.70;;;;;;;-0.16;67.13;100150.69;1671129;82;21314;-85
2021/03/23 20:26:12;;;;;;;3.63;3.07;;;;;;;-0.11;66.56;100148.53;1598015;87;21230;-85
2021/03/23 20:28:40;;;;;;;6.13;3.70;;;;;;;-0.09;66.48;100159.72;1607886;87;21211;-87
2021/03/23 20:31:09;;;;;;;5.17;3.30;;;;;;;-0.13;66.45;100151.72;1603075;88;21244;-84
2021/03/23 20:33:37;;;;;;;5.23;3.17;;;;;;;-0.10;66.37;100158.04;1604456;87;21181;-86
2021/03/23 20:36:08;;;;;;;3.83;3.30;;;;;;;-0.03;66.06;100153.97;1652345;85;21243;-87
2021/03/23 21:14:42;;;;;;;3.90;2.90;;;;;;;-0.13;66.28;100177.47;1527469;88;21274;-88
2021/03/23 21:17:10;;;;;;;3.57;2.70;;;;;;;-0.15;66.64;100164.97;1585640;88;21273;-87
2021/03/23 21:19:40;;;;;;;3.03;2.33;;;;;;;-0.17;66.81;100166.89;1605017;86;21207;-86
2021/03/23 21:22:17;;;;;;;;;;;;;;;;;;;;;
2021/03/23 21:24:51;;;;;;;3.47;2.30;;;;;;;-0.12;67.11;100169.95;1815007;77;23403;-86
2021/03/23 21:27:18;;;;;;;4.57;2.53;;;;;;;-0.16;66.84;100171.64;1772305;78;21182;-86
2021/03/23 21:29:45;;;;;;;4.57;3.27;;;;;;;-0.22;66.90;100165.11;1740712;80;21334;-87
2021/03/23 21:32:12;;;;;;;4.77;3.07;;;;;;;-0.16;66.82;100176.88;1738888;81;21247;-85
2021/03/23 21:34:40;;;;;;;2.93;2.30;;;;;;;-0.17;66.34;100171.27;1683180;83;21096;-86
2021/03/23 21:37:08;;;;;;;3.30;2.97;;;;;;;-0.16;66.42;100165.09;1658671;86;21202;-87
2021/03/23 21:39:35;;;;;;;3.27;2.70;;;;;;;-0.10;65.89;100167.20;1661165;84;22239;-89
2021/03/23 21:42:03;;;;;;;2.90;2.70;;;;;;;-0.09;65.77;100167.58;1679806;84;21223;-84